sensor_id;sensor_type;location;lat;lon;timestamp;temperature;humidity
11511;DHT22;5812;48.864;9.190;2022-12-20T00:00:45;3.80;99.90
11511;DHT22;5812;48.864;9.190;2022-12-20T00:03:10;3.70;99.90
11511;DHT22;5812;48.864;9.190;2022-12-20T00:05:40;3.70;99.90
11511;DHT22;5812;48.864;9.190;2022-12-20T00:08:07;3.60;99.90
11511;DHT22;5812;48.864;9.190;2022-12-20T00:10:41;3.60;99.90
11511;DHT22;5812;48.864;9.190;2022-12-20T00:13:08;3.60;99.90
11511;DHT22;5812;48.864;9.190;2022-12-20T00:15:34;3.60;99.90
11511;DHT22;5812;48.864;9.190;2022-12-20T00:18:00;3.60;99.90
11511;DHT22;5812;48.864;9.190;2022-12-20T00:20:28;3.50;99.90
11511;DHT22;5812;48.864;9.190;2022-12-20T00:22:54;3.50;99.90
11511;DHT22;5812;48.864;9.190;2022-12-20T00:25:20;3.60;99.90
11511;DHT22;5812;48.864;9.190;2022-12-20T00:27:46;3.60;99.90
11511;DHT22;5812;48.864;9.190;2022-12-20T00:30:13;3.50;99.90
11511;DHT22;5812;48.864;9.190;2022-12-20T00:32:39;3.50;99.90
11511;DHT22;5812;48.864;9.190;2022-12-20T00:35:04;3.50;99.90
11511;DHT22;5812;48.864;9.190;2022-12-20T00:37:30;3.50;99.90
11511;DHT22;5812;48.864;9.190;2022-12-20T00:39:56;3.70;99.90
11511;DHT22;5812;48.864;9.190;2022-12-20T00:42:21;3.70;99.90
11511;DHT22;5812;48.864;9.190;2022-12-20T00:44:47;3.70;99.90
11511;DHT22;5812;48.864;9.190;2022-12-20T00:47:13;3.70;99.90
11511;DHT22;5812;48.864;9.190;2022-12-20T00:49:39;3.70;99.90
11511;DHT22;5812;48.864;9.190;2022-12-20T00:52:04;3.70;99.90
11511;DHT22;5812;48.864;9.190;2022-12-20T00:54:30;3.70;99.90
11511;DHT22;5812;48.864;9.190;2022-12-20T00:56:56;3.70;99.90
11511;DHT22;5812;48.864;9.190;2022-12-20T00:59:21;3.70;99.90
11511;DHT22;5812;48.864;9.190;2022-12-20T01:01:47;3.80;99.90
11511;DHT22;5812;48.864;9.190;2022-12-20T01:04:12;3.70;99.90
11511;DHT22;5812;48.864;9.190;2022-12-20T01:06:38;3.70;99.90
11511;DHT22;5812;48.864;9.190;2022-12-20T01:09:04;3.80;99.90
11511;DHT22;5812;48.864;9.190;2022-12-20T01:11:32;3.80;99.90
11511;DHT22;5812;48.864;9.190;2022-12-20T01:14:05;3.80;99.90
11511;DHT22;5812;48.864;9.190;2022-12-20T01:16:36;3.80;99.90
11511;DHT22;5812;48.864;9.190;2022-12-20T01:19:03;3.70;99.90
11511;DHT22;5812;48.864;9.190;2022-12-20T01:21:29;3.70;99.90
11511;DHT22;5812;48.864;9.190;2022-12-20T01:23:55;3.80;99.90
11511;DHT22;5812;48.864;9.190;2022-12-20T01:26:23;3.80;99.90
11511;DHT22;5812;48.864;9.190;2022-12-20T01:28:51;3.80;99.90
11511;DHT22;5812;48.864;9.190;2022-12-20T01:31:18;3.70;99.90
11511;DHT22;5812;48.864;9.190;2022-12-20T01:33:46;3.70;99.90
11511;DHT22;5812;48.864;9.190;2022-12-20T01:36:17;3.70;99.90
11511;DHT22;5812;48.864;9.190;2022-12-20T01:38:43;3.70;99.90
11511;DHT22;5812;48.864;9.190;2022-12-20T01:41:20;3.70;99.90
11511;DHT22;5812;48.864;9.190;2022-12-20T01:43:58;3.60;99.90
11511;DHT22;5812;48.864;9.190;2022-12-20T01:46:27;3.60;99.90
11511;DHT22;5812;48.864;9.190;2022-12-20T01:48:59;3.70;99.90
11511;DHT22;5812;48.864;9.190;2022-12-20T01:51:28;3.70;99.90
11511;DHT22;5812;48.864;9.190;2022-12-20T01:53:59;3.70;99.90
11511;DHT22;5812;48.864;9.190;2022-12-20T01:56:26;3.70;99.90
11511;DHT22;5812;48.864;9.190;2022-12-20T01:58:53;3.70;99.90
11511;DHT22;5812;48.864;9.190;2022-12-20T02:01:22;3.90;99.90
11511;DHT22;5812;48.864;9.190;2022-12-20T02:03:49;3.80;99.90
11511;DHT22;5812;48.864;9.190;2022-12-20T02:06:21;3.80;99.90
11511;DHT22;5812;48.864;9.190;2022-12-20T02:08:49;3.70;99.90
11511;DHT22;5812;48.864;9.190;2022-12-20T02:16:39;3.60;99.90
11511;DHT22;5812;48.864;9.190;2022-12-20T02:21:51;3.70;99.90
11511;DHT22;5812;48.864;9.190;2022-12-20T02:24:43;3.70;99.90
11511;DHT22;5812;48.864;9.190;2022-12-20T02:27:51;3.60;99.90
11511;DHT22;5812;48.864;9.190;2022-12-20T02:30:22;3.60;99.90
11511;DHT22;5812;48.864;9.190;2022-12-20T02:33:17;3.60;99.90
11511;DHT22;5812;48.864;9.190;2022-12-20T02:35:44;3.50;99.90
11511;DHT22;5812;48.864;9.190;2022-12-20T02:38:45;3.50;99.90
11511;DHT22;5812;48.864;9.190;2022-12-20T02:41:33;3.40;99.90
11511;DHT22;5812;48.864;9.190;2022-12-20T02:44:15;3.50;99.90
11511;DHT22;5812;48.864;9.190;2022-12-20T02:47:03;3.50;99.90
11511;DHT22;5812;48.864;9.190;2022-12-20T02:49:31;3.40;99.90
11511;DHT22;5812;48.864;9.190;2022-12-20T02:51:59;3.30;99.90
11511;DHT22;5812;48.864;9.190;2022-12-20T02:54:27;3.30;99.90
11511;DHT22;5812;48.864;9.190;2022-12-20T02:57:20;3.40;99.90
11511;DHT22;5812;48.864;9.190;2022-12-20T03:00:02;3.50;99.90
11511;DHT22;5812;48.864;9.190;2022-12-20T03:02:28;3.70;99.90
11511;DHT22;5812;48.864;9.190;2022-12-20T03:05:15;3.70;99.90
11511;DHT22;5812;48.864;9.190;2022-12-20T03:07:41;3.70;99.90
11511;DHT22;5812;48.864;9.190;2022-12-20T03:10:07;3.80;99.90
11511;DHT22;5812;48.864;9.190;2022-12-20T03:12:33;3.80;99.90
11511;DHT22;5812;48.864;9.190;2022-12-20T03:14:59;3.80;99.90
11511;DHT22;5812;48.864;9.190;2022-12-20T03:17:24;3.80;99.90
11511;DHT22;5812;48.864;9.190;2022-12-20T03:19:50;3.70;99.90
11511;DHT22;5812;48.864;9.190;2022-12-20T03:22:16;3.70;99.90
11511;DHT22;5812;48.864;9.190;2022-12-20T03:24:41;3.80;99.90
11511;DHT22;5812;48.864;9.190;2022-12-20T03:27:07;3.90;99.90
11511;DHT22;5812;48.864;9.190;2022-12-20T03:29:33;3.80;99.90
11511;DHT22;5812;48.864;9.190;2022-12-20T03:31:58;3.80;99.90
11511;DHT22;5812;48.864;9.190;2022-12-20T03:34:24;3.80;99.90
11511;DHT22;5812;48.864;9.190;2022-12-20T03:36:50;3.80;99.90
11511;DHT22;5812;48.864;9.190;2022-12-20T03:39:15;3.80;99.90
11511;DHT22;5812;48.864;9.190;2022-12-20T03:41:41;3.90;99.90
11511;DHT22;5812;48.864;9.190;2022-12-20T03:44:07;3.80;99.90
11511;DHT22;5812;48.864;9.190;2022-12-20T03:46:32;3.80;99.90
11511;DHT22;5812;48.864;9.190;2022-12-20T03:48:58;3.90;99.90
11511;DHT22;5812;48.864;9.190;2022-12-20T03:51:24;4.00;99.90
11511;DHT22;5812;48.864;9.190;2022-12-20T03:53:49;4.00;99.90
11511;DHT22;5812;48.864;9.190;2022-12-20T03:56:15;3.90;99.90
11511;DHT22;5812;48.864;9.190;2022-12-20T03:58:41;3.90;99.90
11511;DHT22;5812;48.864;9.190;2022-12-20T04:01:26;4.00;99.90
11511;DHT22;5812;48.864;9.190;2022-12-20T04:03:53;4.00;99.90
11511;DHT22;5812;48.864;9.190;2022-12-20T04:06:19;4.10;99.90
11511;DHT22;5812;48.864;9.190;2022-12-20T04:08:45;4.10;99.90
11511;DHT22;5812;48.864;9.190;2022-12-20T04:11:11;4.00;99.90
11511;DHT22;5812;48.864;9.190;2022-12-20T04:13:50;4.00;99.90
11511;DHT22;5812;48.864;9.190;2022-12-20T04:16:19;4.00;99.90
11511;DHT22;5812;48.864;9.190;2022-12-20T04:18:44;4.10;99.90
11511;DHT22;5812;48.864;9.190;2022-12-20T04:21:11;4.10;99.90
11511;DHT22;5812;48.864;9.190;2022-12-20T04:23:38;4.20;99.90
11511;DHT22;5812;48.864;9.190;2022-12-20T04:26:05;4.20;99.90
11511;DHT22;5812;48.864;9.190;2022-12-20T04:28:31;4.30;99.90
11511;DHT22;5812;48.864;9.190;2022-12-20T04:30:57;4.20;99.90
11511;DHT22;5812;48.864;9.190;2022-12-20T04:33:23;4.20;99.90
11511;DHT22;5812;48.864;9.190;2022-12-20T04:35:49;4.30;99.90
11511;DHT22;5812;48.864;9.190;2022-12-20T04:38:17;4.30;99.90
11511;DHT22;5812;48.864;9.190;2022-12-20T04:40:42;4.30;99.90
11511;DHT22;5812;48.864;9.190;2022-12-20T04:43:08;4.20;99.90
11511;DHT22;5812;48.864;9.190;2022-12-20T04:45:34;4.20;99.90
11511;DHT22;5812;48.864;9.190;2022-12-20T04:48:00;4.10;99.90
11511;DHT22;5812;48.864;9.190;2022-12-20T04:50:25;4.10;99.90
11511;DHT22;5812;48.864;9.190;2022-12-20T04:52:51;4.20;99.90
11511;DHT22;5812;48.864;9.190;2022-12-20T04:55:38;4.20;99.90
11511;DHT22;5812;48.864;9.190;2022-12-20T04:58:05;4.20;99.90
11511;DHT22;5812;48.864;9.190;2022-12-20T05:00:31;4.20;99.90
11511;DHT22;5812;48.864;9.190;2022-12-20T05:02:57;4.20;99.90
11511;DHT22;5812;48.864;9.190;2022-12-20T05:05:22;4.30;99.90
11511;DHT22;5812;48.864;9.190;2022-12-20T05:07:48;4.30;99.90
11511;DHT22;5812;48.864;9.190;2022-12-20T05:10:14;4.40;99.90
11511;DHT22;5812;48.864;9.190;2022-12-20T05:12:40;4.40;99.90
11511;DHT22;5812;48.864;9.190;2022-12-20T05:15:06;4.50;99.90
11511;DHT22;5812;48.864;9.190;2022-12-20T05:17:32;4.40;99.90
11511;DHT22;5812;48.864;9.190;2022-12-20T05:19:58;4.50;99.90
11511;DHT22;5812;48.864;9.190;2022-12-20T05:22:24;4.50;99.90
11511;DHT22;5812;48.864;9.190;2022-12-20T05:25:11;4.50;99.90
11511;DHT22;5812;48.864;9.190;2022-12-20T05:27:55;4.40;99.90
11511;DHT22;5812;48.864;9.190;2022-12-20T05:30:21;4.50;99.90
11511;DHT22;5812;48.864;9.190;2022-12-20T05:32:47;4.60;99.90
11511;DHT22;5812;48.864;9.190;2022-12-20T05:35:12;4.60;99.90
11511;DHT22;5812;48.864;9.190;2022-12-20T05:37:38;4.60;99.90
11511;DHT22;5812;48.864;9.190;2022-12-20T05:40:05;4.70;99.90
11511;DHT22;5812;48.864;9.190;2022-12-20T05:42:31;4.80;99.90
11511;DHT22;5812;48.864;9.190;2022-12-20T05:44:56;4.60;99.90
11511;DHT22;5812;48.864;9.190;2022-12-20T05:47:22;4.60;99.90
11511;DHT22;5812;48.864;9.190;2022-12-20T05:49:47;4.70;99.90
11511;DHT22;5812;48.864;9.190;2022-12-20T05:52:13;4.60;99.90
11511;DHT22;5812;48.864;9.190;2022-12-20T05:54:38;4.60;99.90
11511;DHT22;5812;48.864;9.190;2022-12-20T05:57:04;4.60;99.90
11511;DHT22;5812;48.864;9.190;2022-12-20T05:59:30;4.60;99.90
11511;DHT22;5812;48.864;9.190;2022-12-20T06:01:55;4.60;99.90
11511;DHT22;5812;48.864;9.190;2022-12-20T06:04:21;4.60;99.90
11511;DHT22;5812;48.864;9.190;2022-12-20T06:06:46;4.60;99.90
11511;DHT22;5812;48.864;9.190;2022-12-20T06:09:12;4.60;99.90
11511;DHT22;5812;48.864;9.190;2022-12-20T06:11:38;4.60;99.90
11511;DHT22;5812;48.864;9.190;2022-12-20T06:14:03;4.70;99.90
11511;DHT22;5812;48.864;9.190;2022-12-20T06:16:29;4.60;99.90
11511;DHT22;5812;48.864;9.190;2022-12-20T06:18:54;4.60;99.90
11511;DHT22;5812;48.864;9.190;2022-12-20T06:21:21;4.60;99.90
11511;DHT22;5812;48.864;9.190;2022-12-20T06:23:47;4.70;99.90
11511;DHT22;5812;48.864;9.190;2022-12-20T06:26:12;4.70;99.90
11511;DHT22;5812;48.864;9.190;2022-12-20T06:28:38;4.60;99.90
11511;DHT22;5812;48.864;9.190;2022-12-20T06:31:08;4.60;99.90
11511;DHT22;5812;48.864;9.190;2022-12-20T06:33:35;4.70;99.90
11511;DHT22;5812;48.864;9.190;2022-12-20T06:36:01;4.60;99.90
11511;DHT22;5812;48.864;9.190;2022-12-20T06:38:27;4.60;99.90
11511;DHT22;5812;48.864;9.190;2022-12-20T06:40:52;4.60;99.90
11511;DHT22;5812;48.864;9.190;2022-12-20T06:43:18;4.60;99.90
11511;DHT22;5812;48.864;9.190;2022-12-20T06:45:44;4.50;99.90
11511;DHT22;5812;48.864;9.190;2022-12-20T06:48:10;4.60;99.90
11511;DHT22;5812;48.864;9.190;2022-12-20T06:50:38;4.60;99.90
11511;DHT22;5812;48.864;9.190;2022-12-20T06:53:04;4.60;99.90
11511;DHT22;5812;48.864;9.190;2022-12-20T06:55:30;4.70;99.90
11511;DHT22;5812;48.864;9.190;2022-12-20T06:57:55;4.70;99.90
11511;DHT22;5812;48.864;9.190;2022-12-20T07:00:21;4.70;99.90
11511;DHT22;5812;48.864;9.190;2022-12-20T07:02:47;4.70;99.90
11511;DHT22;5812;48.864;9.190;2022-12-20T07:05:13;4.60;99.90
11511;DHT22;5812;48.864;9.190;2022-12-20T07:07:38;4.50;99.90
11511;DHT22;5812;48.864;9.190;2022-12-20T07:10:05;4.40;99.90
11511;DHT22;5812;48.864;9.190;2022-12-20T07:12:31;4.40;99.90
11511;DHT22;5812;48.864;9.190;2022-12-20T07:14:58;4.40;99.90
11511;DHT22;5812;48.864;9.190;2022-12-20T07:17:23;4.30;99.90
11511;DHT22;5812;48.864;9.190;2022-12-20T07:19:49;4.30;99.90
11511;DHT22;5812;48.864;9.190;2022-12-20T07:22:15;4.30;99.90
11511;DHT22;5812;48.864;9.190;2022-12-20T07:24:41;4.20;99.90
11511;DHT22;5812;48.864;9.190;2022-12-20T07:27:06;4.10;99.90
11511;DHT22;5812;48.864;9.190;2022-12-20T07:29:32;4.10;99.90
11511;DHT22;5812;48.864;9.190;2022-12-20T07:31:58;4.00;99.90
11511;DHT22;5812;48.864;9.190;2022-12-20T07:34:23;4.00;99.90
11511;DHT22;5812;48.864;9.190;2022-12-20T07:36:49;3.90;99.90
11511;DHT22;5812;48.864;9.190;2022-12-20T07:39:15;4.00;99.90
11511;DHT22;5812;48.864;9.190;2022-12-20T07:41:40;4.00;99.90
11511;DHT22;5812;48.864;9.190;2022-12-20T07:44:06;4.10;99.90
11511;DHT22;5812;48.864;9.190;2022-12-20T07:46:32;4.10;99.90
11511;DHT22;5812;48.864;9.190;2022-12-20T07:48:58;4.10;99.90
11511;DHT22;5812;48.864;9.190;2022-12-20T07:51:27;4.20;99.90
11511;DHT22;5812;48.864;9.190;2022-12-20T07:53:59;4.20;99.90
11511;DHT22;5812;48.864;9.190;2022-12-20T07:56:26;4.20;99.90
11511;DHT22;5812;48.864;9.190;2022-12-20T07:58:54;4.20;99.90
11511;DHT22;5812;48.864;9.190;2022-12-20T08:01:25;4.20;99.90
11511;DHT22;5812;48.864;9.190;2022-12-20T08:03:54;4.30;99.90
11511;DHT22;5812;48.864;9.190;2022-12-20T08:06:22;4.40;99.90
11511;DHT22;5812;48.864;9.190;2022-12-20T08:08:51;5.20;99.90
11511;DHT22;5812;48.864;9.190;2022-12-20T08:11:20;4.80;99.90
11511;DHT22;5812;48.864;9.190;2022-12-20T08:13:48;4.90;99.90
11511;DHT22;5812;48.864;9.190;2022-12-20T08:16:14;4.90;99.90
11511;DHT22;5812;48.864;9.190;2022-12-20T08:18:40;5.10;99.90
11511;DHT22;5812;48.864;9.190;2022-12-20T08:21:05;5.10;99.90
11511;DHT22;5812;48.864;9.190;2022-12-20T08:23:31;5.20;99.90
11511;DHT22;5812;48.864;9.190;2022-12-20T08:26:00;5.30;99.90
11511;DHT22;5812;48.864;9.190;2022-12-20T08:28:25;5.50;99.90
11511;DHT22;5812;48.864;9.190;2022-12-20T08:30:51;5.60;99.90
11511;DHT22;5812;48.864;9.190;2022-12-20T08:33:16;5.60;99.90
11511;DHT22;5812;48.864;9.190;2022-12-20T08:35:42;5.50;99.90
11511;DHT22;5812;48.864;9.190;2022-12-20T08:38:08;5.70;99.90
11511;DHT22;5812;48.864;9.190;2022-12-20T08:40:33;5.70;99.90
11511;DHT22;5812;48.864;9.190;2022-12-20T08:42:59;5.70;99.90
11511;DHT22;5812;48.864;9.190;2022-12-20T08:45:24;5.80;99.90
11511;DHT22;5812;48.864;9.190;2022-12-20T08:47:50;5.80;99.90
11511;DHT22;5812;48.864;9.190;2022-12-20T08:50:15;5.90;99.90
11511;DHT22;5812;48.864;9.190;2022-12-20T08:52:41;6.00;99.90
11511;DHT22;5812;48.864;9.190;2022-12-20T08:55:07;6.10;99.90
11511;DHT22;5812;48.864;9.190;2022-12-20T08:57:32;6.20;99.90
11511;DHT22;5812;48.864;9.190;2022-12-20T08:59:58;6.20;99.90
11511;DHT22;5812;48.864;9.190;2022-12-20T09:02:24;6.20;99.90
11511;DHT22;5812;48.864;9.190;2022-12-20T09:04:50;6.30;99.90
11511;DHT22;5812;48.864;9.190;2022-12-20T09:07:16;6.30;99.90
11511;DHT22;5812;48.864;9.190;2022-12-20T09:09:42;6.40;99.90
11511;DHT22;5812;48.864;9.190;2022-12-20T09:12:07;6.50;99.90
11511;DHT22;5812;48.864;9.190;2022-12-20T09:14:33;6.50;99.90
11511;DHT22;5812;48.864;9.190;2022-12-20T09:16:58;6.60;99.90
11511;DHT22;5812;48.864;9.190;2022-12-20T09:19:24;6.60;99.90
11511;DHT22;5812;48.864;9.190;2022-12-20T09:21:49;6.60;99.90
11511;DHT22;5812;48.864;9.190;2022-12-20T09:24:15;6.70;99.90
11511;DHT22;5812;48.864;9.190;2022-12-20T09:26:41;6.70;99.90
11511;DHT22;5812;48.864;9.190;2022-12-20T09:29:07;6.70;99.90
11511;DHT22;5812;48.864;9.190;2022-12-20T09:31:32;6.80;99.90
11511;DHT22;5812;48.864;9.190;2022-12-20T09:33:58;6.80;99.90
11511;DHT22;5812;48.864;9.190;2022-12-20T09:36:26;6.70;99.90
11511;DHT22;5812;48.864;9.190;2022-12-20T09:38:53;6.70;99.90
11511;DHT22;5812;48.864;9.190;2022-12-20T09:43:54;6.60;99.90
11511;DHT22;5812;48.864;9.190;2022-12-20T09:46:21;6.60;99.90
11511;DHT22;5812;48.864;9.190;2022-12-20T09:48:47;6.60;99.90
11511;DHT22;5812;48.864;9.190;2022-12-20T09:51:39;6.60;99.90
11511;DHT22;5812;48.864;9.190;2022-12-20T09:57:06;6.70;99.90
11511;DHT22;5812;48.864;9.190;2022-12-20T09:59:43;6.70;99.90
11511;DHT22;5812;48.864;9.190;2022-12-20T10:02:14;6.80;99.90
11511;DHT22;5812;48.864;9.190;2022-12-20T10:04:47;6.80;99.90
11511;DHT22;5812;48.864;9.190;2022-12-20T10:12:35;6.90;99.90
11511;DHT22;5812;48.864;9.190;2022-12-20T10:15:24;6.90;99.90
11511;DHT22;5812;48.864;9.190;2022-12-20T10:20:52;7.00;99.90
11511;DHT22;5812;48.864;9.190;2022-12-20T10:26:25;7.10;99.90
11511;DHT22;5812;48.864;9.190;2022-12-20T10:28:50;7.30;99.90
11511;DHT22;5812;48.864;9.190;2022-12-20T10:31:17;7.30;99.90
11511;DHT22;5812;48.864;9.190;2022-12-20T10:33:44;7.40;99.90
11511;DHT22;5812;48.864;9.190;2022-12-20T10:36:26;7.70;99.90
11511;DHT22;5812;48.864;9.190;2022-12-20T10:38:57;8.10;99.90
11511;DHT22;5812;48.864;9.190;2022-12-20T10:41:30;7.60;99.90
11511;DHT22;5812;48.864;9.190;2022-12-20T10:44:00;7.60;99.90
11511;DHT22;5812;48.864;9.190;2022-12-20T10:46:42;7.60;99.90
11511;DHT22;5812;48.864;9.190;2022-12-20T10:52:09;7.60;99.90
11511;DHT22;5812;48.864;9.190;2022-12-20T10:54:38;7.60;99.90
11511;DHT22;5812;48.864;9.190;2022-12-20T10:57:22;7.60;99.90
11511;DHT22;5812;48.864;9.190;2022-12-20T10:59:50;7.70;99.90
11511;DHT22;5812;48.864;9.190;2022-12-20T11:10:20;7.90;99.90
11511;DHT22;5812;48.864;9.190;2022-12-20T11:12:56;7.90;99.90
11511;DHT22;5812;48.864;9.190;2022-12-20T11:18:19;8.20;99.90
11511;DHT22;5812;48.864;9.190;2022-12-20T11:20:51;8.00;99.90
11511;DHT22;5812;48.864;9.190;2022-12-20T11:26:30;8.00;99.90
11511;DHT22;5812;48.864;9.190;2022-12-20T11:32:04;8.10;99.90
11511;DHT22;5812;48.864;9.190;2022-12-20T11:37:27;8.20;99.90
11511;DHT22;5812;48.864;9.190;2022-12-20T11:40:20;8.10;99.90
11511;DHT22;5812;48.864;9.190;2022-12-20T11:56:37;8.10;99.90
11511;DHT22;5812;48.864;9.190;2022-12-20T11:59:47;9.00;99.90
11511;DHT22;5812;48.864;9.190;2022-12-20T12:02:21;8.10;99.90
11511;DHT22;5812;48.864;9.190;2022-12-20T12:05:19;8.10;99.90
11511;DHT22;5812;48.864;9.190;2022-12-20T12:07:50;8.00;99.90
11511;DHT22;5812;48.864;9.190;2022-12-20T12:10:40;8.00;99.90
11511;DHT22;5812;48.864;9.190;2022-12-20T12:13:28;8.10;99.90
11511;DHT22;5812;48.864;9.190;2022-12-20T12:16:15;8.20;99.90
11511;DHT22;5812;48.864;9.190;2022-12-20T12:18:42;8.10;99.90
11511;DHT22;5812;48.864;9.190;2022-12-20T12:21:16;8.10;99.90
11511;DHT22;5812;48.864;9.190;2022-12-20T12:26:32;8.20;99.90
11511;DHT22;5812;48.864;9.190;2022-12-20T12:29:05;8.20;99.90
11511;DHT22;5812;48.864;9.190;2022-12-20T12:40:13;8.30;99.90
11511;DHT22;5812;48.864;9.190;2022-12-20T12:42:50;8.50;99.90
11511;DHT22;5812;48.864;9.190;2022-12-20T12:46:02;8.60;99.90
11511;DHT22;5812;48.864;9.190;2022-12-20T12:51:07;8.60;99.90
11511;DHT22;5812;48.864;9.190;2022-12-20T12:53:49;8.70;99.90
11511;DHT22;5812;48.864;9.190;2022-12-20T13:01:53;8.80;99.90
11511;DHT22;5812;48.864;9.190;2022-12-20T13:09:20;8.90;99.90
11511;DHT22;5812;48.864;9.190;2022-12-20T13:11:47;9.00;99.90
11511;DHT22;5812;48.864;9.190;2022-12-20T13:16:42;9.60;99.90
11511;DHT22;5812;48.864;9.190;2022-12-20T13:21:45;8.90;99.90
11511;DHT22;5812;48.864;9.190;2022-12-20T13:24:46;8.90;99.90
11511;DHT22;5812;48.864;9.190;2022-12-20T13:40:28;8.80;99.90
11511;DHT22;5812;48.864;9.190;2022-12-20T13:42:58;8.70;99.90
11511;DHT22;5812;48.864;9.190;2022-12-20T13:45:25;8.80;99.90
11511;DHT22;5812;48.864;9.190;2022-12-20T13:47:55;8.70;99.90
11511;DHT22;5812;48.864;9.190;2022-12-20T13:50:26;8.70;99.90
11511;DHT22;5812;48.864;9.190;2022-12-20T13:52:52;8.70;99.90
11511;DHT22;5812;48.864;9.190;2022-12-20T13:55:35;8.70;99.90
11511;DHT22;5812;48.864;9.190;2022-12-20T14:00:47;8.60;99.90
11511;DHT22;5812;48.864;9.190;2022-12-20T14:03:32;8.70;99.90
11511;DHT22;5812;48.864;9.190;2022-12-20T14:06:01;9.40;99.90
11511;DHT22;5812;48.864;9.190;2022-12-20T14:08:36;8.60;99.90
11511;DHT22;5812;48.864;9.190;2022-12-20T14:11:23;8.60;99.90
11511;DHT22;5812;48.864;9.190;2022-12-20T14:13:58;8.60;99.90
11511;DHT22;5812;48.864;9.190;2022-12-20T14:16:26;10.00;99.90
11511;DHT22;5812;48.864;9.190;2022-12-20T14:19:04;8.60;99.90
11511;DHT22;5812;48.864;9.190;2022-12-20T14:21:31;8.70;99.90
11511;DHT22;5812;48.864;9.190;2022-12-20T14:23:59;8.70;99.90
11511;DHT22;5812;48.864;9.190;2022-12-20T14:26:50;10.30;99.90
11511;DHT22;5812;48.864;9.190;2022-12-20T14:29:34;8.80;99.90
11511;DHT22;5812;48.864;9.190;2022-12-20T14:32:00;8.90;99.90
11511;DHT22;5812;48.864;9.190;2022-12-20T14:34:29;8.90;99.90
11511;DHT22;5812;48.864;9.190;2022-12-20T14:37:30;9.20;99.90
11511;DHT22;5812;48.864;9.190;2022-12-20T14:42:37;8.80;99.90
11511;DHT22;5812;48.864;9.190;2022-12-20T14:47:35;8.60;99.90
11511;DHT22;5812;48.864;9.190;2022-12-20T14:50:05;8.50;99.90
11511;DHT22;5812;48.864;9.190;2022-12-20T14:54:59;8.60;99.90
11511;DHT22;5812;48.864;9.190;2022-12-20T15:00:20;8.40;99.90
11511;DHT22;5812;48.864;9.190;2022-12-20T15:05:37;8.40;99.90
11511;DHT22;5812;48.864;9.190;2022-12-20T15:08:21;8.40;99.90
11511;DHT22;5812;48.864;9.190;2022-12-20T15:10:57;8.30;99.90
11511;DHT22;5812;48.864;9.190;2022-12-20T15:13:35;8.20;99.90
11511;DHT22;5812;48.864;9.190;2022-12-20T15:16:03;8.20;99.90
11511;DHT22;5812;48.864;9.190;2022-12-20T15:18:29;9.60;99.90
11511;DHT22;5812;48.864;9.190;2022-12-20T15:21:04;8.10;99.90
11511;DHT22;5812;48.864;9.190;2022-12-20T15:23:31;8.80;99.90
11511;DHT22;5812;48.864;9.190;2022-12-20T15:25:58;8.10;99.90
11511;DHT22;5812;48.864;9.190;2022-12-20T15:28:25;8.10;99.90
11511;DHT22;5812;48.864;9.190;2022-12-20T15:30:52;8.00;99.90
11511;DHT22;5812;48.864;9.190;2022-12-20T15:35:46;8.00;99.90
11511;DHT22;5812;48.864;9.190;2022-12-20T15:38:17;8.00;99.90
11511;DHT22;5812;48.864;9.190;2022-12-20T15:40:48;8.00;99.90
11511;DHT22;5812;48.864;9.190;2022-12-20T15:43:17;8.00;99.90
11511;DHT22;5812;48.864;9.190;2022-12-20T15:45:46;8.10;99.90
11511;DHT22;5812;48.864;9.190;2022-12-20T15:48:18;8.00;99.90
11511;DHT22;5812;48.864;9.190;2022-12-20T15:50:51;8.10;99.90
11511;DHT22;5812;48.864;9.190;2022-12-20T15:53:23;8.00;99.90
11511;DHT22;5812;48.864;9.190;2022-12-20T15:55:52;8.60;99.90
11511;DHT22;5812;48.864;9.190;2022-12-20T15:58:19;8.00;99.90
11511;DHT22;5812;48.864;9.190;2022-12-20T16:00:45;7.90;99.90
11511;DHT22;5812;48.864;9.190;2022-12-20T16:03:22;7.80;99.90
11511;DHT22;5812;48.864;9.190;2022-12-20T16:05:49;7.80;99.90
11511;DHT22;5812;48.864;9.190;2022-12-20T16:08:16;7.90;99.90
11511;DHT22;5812;48.864;9.190;2022-12-20T16:10:46;8.00;99.90
11511;DHT22;5812;48.864;9.190;2022-12-20T16:13:14;7.90;99.90
11511;DHT22;5812;48.864;9.190;2022-12-20T16:15:40;7.90;99.90
11511;DHT22;5812;48.864;9.190;2022-12-20T16:18:05;8.00;99.90
11511;DHT22;5812;48.864;9.190;2022-12-20T16:20:32;7.80;99.90
11511;DHT22;5812;48.864;9.190;2022-12-20T16:22:57;9.00;99.90
11511;DHT22;5812;48.864;9.190;2022-12-20T16:25:27;7.70;99.90
11511;DHT22;5812;48.864;9.190;2022-12-20T16:27:54;7.70;99.90
11511;DHT22;5812;48.864;9.190;2022-12-20T16:30:19;7.60;99.90
11511;DHT22;5812;48.864;9.190;2022-12-20T16:32:45;7.60;99.90
11511;DHT22;5812;48.864;9.190;2022-12-20T16:35:30;7.60;99.90
11511;DHT22;5812;48.864;9.190;2022-12-20T16:37:57;7.60;99.90
11511;DHT22;5812;48.864;9.190;2022-12-20T16:40:25;7.70;99.90
11511;DHT22;5812;48.864;9.190;2022-12-20T16:42:51;7.60;99.90
11511;DHT22;5812;48.864;9.190;2022-12-20T16:45:19;7.70;99.90
11511;DHT22;5812;48.864;9.190;2022-12-20T16:47:46;7.70;99.90
11511;DHT22;5812;48.864;9.190;2022-12-20T16:50:12;7.70;99.90
11511;DHT22;5812;48.864;9.190;2022-12-20T16:52:37;7.80;99.90
11511;DHT22;5812;48.864;9.190;2022-12-20T16:55:03;7.80;99.90
11511;DHT22;5812;48.864;9.190;2022-12-20T16:57:29;7.80;99.90
11511;DHT22;5812;48.864;9.190;2022-12-20T16:59:55;7.80;99.90
11511;DHT22;5812;48.864;9.190;2022-12-20T17:02:32;7.70;99.90
11511;DHT22;5812;48.864;9.190;2022-12-20T17:04:58;7.80;99.90
11511;DHT22;5812;48.864;9.190;2022-12-20T17:07:24;7.80;99.90
11511;DHT22;5812;48.864;9.190;2022-12-20T17:09:50;7.80;99.90
11511;DHT22;5812;48.864;9.190;2022-12-20T17:12:18;7.70;99.90
11511;DHT22;5812;48.864;9.190;2022-12-20T17:14:44;7.70;99.90
11511;DHT22;5812;48.864;9.190;2022-12-20T17:17:10;7.70;99.90
11511;DHT22;5812;48.864;9.190;2022-12-20T17:19:36;7.70;99.90
11511;DHT22;5812;48.864;9.190;2022-12-20T17:22:02;7.60;99.90
11511;DHT22;5812;48.864;9.190;2022-12-20T17:24:28;9.20;99.90
11511;DHT22;5812;48.864;9.190;2022-12-20T17:26:54;7.60;99.90
11511;DHT22;5812;48.864;9.190;2022-12-20T17:29:20;7.60;99.90
11511;DHT22;5812;48.864;9.190;2022-12-20T17:31:46;7.60;99.90
11511;DHT22;5812;48.864;9.190;2022-12-20T17:34:26;9.40;99.90
11511;DHT22;5812;48.864;9.190;2022-12-20T17:36:54;7.60;99.90
11511;DHT22;5812;48.864;9.190;2022-12-20T17:39:20;7.70;99.90
11511;DHT22;5812;48.864;9.190;2022-12-20T17:41:47;7.70;99.90
11511;DHT22;5812;48.864;9.190;2022-12-20T17:44:26;7.70;99.90
11511;DHT22;5812;48.864;9.190;2022-12-20T17:46:53;8.60;99.90
11511;DHT22;5812;48.864;9.190;2022-12-20T17:49:20;9.30;99.90
11511;DHT22;5812;48.864;9.190;2022-12-20T17:51:48;7.70;99.90
11511;DHT22;5812;48.864;9.190;2022-12-20T17:54:22;8.20;99.90
11511;DHT22;5812;48.864;9.190;2022-12-20T17:56:48;7.70;99.90
11511;DHT22;5812;48.864;9.190;2022-12-20T17:59:15;7.70;99.90
11511;DHT22;5812;48.864;9.190;2022-12-20T18:01:41;7.80;99.90
11511;DHT22;5812;48.864;9.190;2022-12-20T18:04:10;7.70;99.90
11511;DHT22;5812;48.864;9.190;2022-12-20T18:06:39;8.80;99.90
11511;DHT22;5812;48.864;9.190;2022-12-20T18:09:06;7.70;99.90
11511;DHT22;5812;48.864;9.190;2022-12-20T18:11:35;8.30;99.90
11511;DHT22;5812;48.864;9.190;2022-12-20T18:14:01;8.80;99.90
11511;DHT22;5812;48.864;9.190;2022-12-20T18:16:30;7.80;99.90
11511;DHT22;5812;48.864;9.190;2022-12-20T18:18:56;7.80;99.90